Terminal Aerodrome Forecast
Issued by NWS Brownsville, TX

Home | Current Version | Previous Version | Text Only | Print | Product List | Glossary On
Versions: 1 2 3 4 5 6 7 8 9 10 11 12 13 14 15 16 17 18 19 20 21 22 23 24
000
FTUS44 KBRO 171700
TAFBRO
TAF
KBRO 171725Z 1718/1818 16013G21KT P6SM BKN250
     FM180000 15010KT P6SM SCT015 BKN050
     FM180600 15008KT P6SM BKN015
     FM181200 14005KT 5SM BR BKN007=

USA.gov is the U.S. government's official web portal to all federal, state and local government web resources and services.